Time;durP1;ratioP1;P1;durP2;ratioP2;P2;SDS_P1;SDS_P2;PMS_P1;PMS_P2;Temp;Humidity;BMP_temperature;BMP_pressure;BME280_temperature;BME280_humidity;BME280_pressure;Samples;Min_cycle;Max_cycle;Signal;HPM_P1;HPM_P2
2022/10/29 00:00:50;;;;;;;17.37;10.27;;;11.90;99.90;;;;;;5094371;28;20208;-76
2022/10/29 00:03:17;;;;;;;13.00;9.87;;;11.90;99.90;;;;;;5094262;28;20319;-76
2022/10/29 00:05:55;;;;;;;18.00;10.53;;;11.80;99.90;;;;;;5094346;28;20651;-77
2022/10/29 00:08:21;;;;;;;14.67;9.80;;;11.70;99.90;;;;;;5094351;28;20663;-76
2022/10/29 00:10:48;;;;;;;11.93;9.33;;;11.70;99.90;;;;;;5094337;28;20280;-76
2022/10/29 00:13:15;;;;;;;17.33;10.33;;;11.60;99.90;;;;;;5094214;28;20197;-76
2022/10/29 00:15:42;;;;;;;15.57;10.03;;;11.60;99.90;;;;;;5094201;28;20722;-76
2022/10/29 00:18:08;;;;;;;16.13;10.50;;;11.60;99.90;;;;;;5094275;28;20196;-76
2022/10/29 00:20:35;;;;;;;14.73;11.10;;;11.60;99.90;;;;;;5094199;28;20200;-76
2022/10/29 00:23:03;;;;;;;17.90;11.03;;;11.50;99.90;;;;;;5094116;28;20201;-76
2022/10/29 00:25:30;;;;;;;14.27;10.27;;;11.50;99.90;;;;;;5093921;28;20250;-76
2022/10/29 00:27:56;;;;;;;15.73;10.80;;;11.40;99.90;;;;;;5093872;28;20663;-76
2022/10/29 00:30:23;;;;;;;13.03;10.77;;;11.40;99.90;;;;;;5094048;28;20250;-76
2022/10/29 00:32:50;;;;;;;16.23;10.47;;;11.40;99.90;;;;;;5094002;28;20242;-75
2022/10/29 00:35:16;;;;;;;16.80;11.13;;;11.30;99.90;;;;;;5093733;28;20204;-76
2022/10/29 00:37:43;;;;;;;19.23;11.90;;;11.30;99.90;;;;;;5093730;28;20257;-76
2022/10/29 00:40:12;;;;;;;14.70;11.73;;;11.30;99.90;;;;;;5093766;28;20200;-76
2022/10/29 00:42:39;;;;;;;19.83;12.60;;;11.30;99.90;;;;;;5093682;28;20213;-76
2022/10/29 00:45:13;;;;;;;19.17;12.67;;;11.20;99.90;;;;;;5093817;28;20193;-76
2022/10/29 00:47:40;;;;;;;20.17;13.30;;;11.20;99.90;;;;;;5093818;28;20196;-76
2022/10/29 00:50:10;;;;;;;20.60;13.87;;;11.20;99.90;;;;;;5093536;28;20220;-76
2022/10/29 00:52:40;;;;;;;19.50;13.13;;;11.30;99.90;;;;;;5093599;28;20196;-76
2022/10/29 00:55:10;;;;;;;19.70;12.80;;;11.20;99.90;;;;;;5093426;28;20192;-76
2022/10/29 00:57:41;;;;;;;21.67;13.73;;;11.30;99.90;;;;;;5093594;28;20196;-76
2022/10/29 01:00:09;;;;;;;21.47;12.60;;;11.30;99.90;;;;;;5093508;28;20257;-76
2022/10/29 01:02:37;;;;;;;17.37;12.20;;;11.20;99.90;;;;;;5093557;28;20196;-76
2022/10/29 01:05:06;;;;;;;20.10;13.93;;;11.20;99.90;;;;;;5093088;28;20232;-76
2022/10/29 01:07:33;;;;;;;19.03;12.60;;;11.10;99.90;;;;;;5093177;28;20196;-76
2022/10/29 01:10:00;;;;;;;17.90;12.77;;;11.00;99.90;;;;;;5093151;28;20228;-76
2022/10/29 01:12:53;;;;;;;18.87;12.70;;;11.00;99.90;;;;;;5093290;28;20245;-76
2022/10/29 01:15:27;;;;;;;18.37;12.27;;;11.10;99.90;;;;;;5093305;28;20204;-76
2022/10/29 01:18:05;;;;;;;20.93;13.43;;;11.10;99.90;;;;;;5093133;28;20203;-76
2022/10/29 01:21:07;;;;;;;18.73;13.37;;;11.10;99.90;;;;;;5093311;28;20607;-76
2022/10/29 01:24:00;;;;;;;17.70;12.03;;;11.10;99.90;;;;;;5093189;28;20203;-76
2022/10/29 01:26:47;;;;;;;20.13;12.43;;;10.90;99.90;;;;;;5093023;28;20192;-76
2022/10/29 01:29:35;;;;;;;19.03;13.13;;;10.90;99.90;;;;;;5093150;28;20197;-76
2022/10/29 01:32:10;;;;;;;18.47;12.77;;;11.00;99.90;;;;;;5092960;28;20245;-76
2022/10/29 01:34:43;;;;;;;17.67;12.90;;;10.90;99.90;;;;;;5092925;28;20593;-76
2022/10/29 01:37:16;;;;;;;21.63;12.33;;;10.90;99.90;;;;;;5093145;28;20196;-76
2022/10/29 01:39:48;;;;;;;16.63;12.70;;;10.90;99.90;;;;;;5093027;28;20265;-76
2022/10/29 01:42:23;;;;;;;19.00;12.27;;;10.80;99.90;;;;;;5092910;28;20242;-76
2022/10/29 01:44:56;;;;;;;19.90;12.00;;;10.90;99.90;;;;;;5092817;28;20609;-75
2022/10/29 01:47:28;;;;;;;16.90;11.97;;;10.90;99.90;;;;;;5095616;28;20199;-76
2022/10/29 01:49:59;;;;;;;16.00;11.63;;;10.80;99.90;;;;;;5097227;28;20200;-76
2022/10/29 01:52:31;;;;;;;20.60;12.57;;;10.80;99.90;;;;;;5097097;28;20231;-76
2022/10/29 01:54:58;;;;;;;18.10;12.30;;;10.80;99.90;;;;;;5097077;28;20241;-76
2022/10/29 01:57:30;;;;;;;18.17;12.73;;;10.80;99.90;;;;;;5096906;28;20192;-76
2022/10/29 02:00:00;;;;;;;19.20;12.47;;;10.80;99.90;;;;;;5096983;28;20559;-76
2022/10/29 02:02:38;;;;;;;22.17;12.37;;;10.80;99.90;;;;;;5096938;28;20612;-76
2022/10/29 02:05:12;;;;;;;16.43;11.97;;;10.80;99.90;;;;;;5096624;28;20223;-76
2022/10/29 02:07:49;;;;;;;17.90;12.10;;;10.90;99.90;;;;;;5096779;28;20684;-76
2022/10/29 02:10:21;;;;;;;18.50;11.20;;;10.90;99.90;;;;;;5096705;28;20212;-76
2022/10/29 02:12:50;;;;;;;26.07;11.80;;;10.90;99.90;;;;;;5096733;28;20196;-76
2022/10/29 02:15:22;;;;;;;17.47;11.10;;;10.90;99.90;;;;;;5096568;28;20660;-76
2022/10/29 02:17:50;;;;;;;14.30;11.07;;;10.90;99.90;;;;;;5096581;28;20258;-76
2022/10/29 02:20:17;;;;;;;18.27;12.03;;;10.80;99.90;;;;;;5096423;28;20197;-76
2022/10/29 02:22:44;;;;;;;21.97;12.63;;;10.90;99.90;;;;;;5096211;28;20200;-76
2022/10/29 02:25:11;;;;;;;18.20;11.47;;;10.90;99.90;;;;;;5096490;28;20242;-76
2022/10/29 02:27:38;;;;;;;18.30;10.83;;;10.90;99.90;;;;;;5096354;28;20593;-76
2022/10/29 02:30:06;;;;;;;16.73;11.33;;;10.90;99.90;;;;;;5096273;28;20196;-76
2022/10/29 02:32:33;;;;;;;17.73;12.30;;;10.90;99.90;;;;;;5096193;28;20273;-75
2022/10/29 02:35:01;;;;;;;15.63;11.60;;;10.90;99.90;;;;;;5096073;28;20643;-74
2022/10/29 02:37:28;;;;;;;18.47;11.83;;;10.90;99.90;;;;;;5096029;28;20651;-75
2022/10/29 02:39:55;;;;;;;18.80;11.60;;;10.90;99.90;;;;;;5096187;28;20226;-75
2022/10/29 02:42:22;;;;;;;17.67;11.43;;;10.80;99.90;;;;;;5096257;28;20254;-75
2022/10/29 02:44:48;;;;;;;16.67;11.63;;;10.80;99.90;;;;;;5095980;28;20241;-74
2022/10/29 02:47:15;;;;;;;16.20;11.57;;;10.80;99.90;;;;;;5096012;28;20193;-75
2022/10/29 02:49:42;;;;;;;12.87;11.50;;;10.70;99.90;;;;;;5095741;28;20663;-74
2022/10/29 02:52:10;;;;;;;15.67;11.40;;;10.70;99.90;;;;;;5095893;28;20232;-74
2022/10/29 02:54:37;;;;;;;18.50;11.13;;;10.60;99.90;;;;;;5095938;28;20204;-75
2022/10/29 02:57:04;;;;;;;18.77;11.73;;;10.50;99.90;;;;;;5095675;28;20211;-75
2022/10/29 02:59:31;;;;;;;16.67;11.60;;;10.50;99.90;;;;;;5095788;28;20197;-74
2022/10/29 03:01:57;;;;;;;20.03;11.53;;;10.50;99.90;;;;;;5095647;28;20242;-75
2022/10/29 03:04:24;;;;;;;17.07;12.00;;;10.50;99.90;;;;;;5095424;28;20265;-75
2022/10/29 03:06:51;;;;;;;17.73;10.77;;;10.50;99.90;;;;;;5095741;28;20200;-74
2022/10/29 03:09:19;;;;;;;14.20;10.43;;;10.50;99.90;;;;;;5095505;28;20200;-75
2022/10/29 03:11:45;;;;;;;12.73;10.50;;;10.40;99.90;;;;;;5095440;28;20220;-74
2022/10/29 03:14:12;;;;;;;16.07;11.80;;;10.40;99.90;;;;;;5095488;28;20200;-75
2022/10/29 03:16:39;;;;;;;20.53;10.77;;;10.30;99.90;;;;;;5095301;28;20257;-75
2022/10/29 03:19:05;;;;;;;16.70;10.90;;;10.30;99.90;;;;;;5095506;28;20200;-75
2022/10/29 03:21:32;;;;;;;15.73;10.97;;;10.20;99.90;;;;;;5095353;28;20196;-75
2022/10/29 03:23:59;;;;;;;16.17;12.07;;;10.20;99.90;;;;;;5095258;28;20200;-75
2022/10/29 03:26:26;;;;;;;19.77;12.57;;;10.20;99.90;;;;;;5095252;28;20200;-75
2022/10/29 03:28:55;;;;;;;20.80;11.83;;;10.20;99.90;;;;;;5095060;28;20613;-76
2022/10/29 03:31:21;;;;;;;16.00;11.23;;;10.20;99.90;;;;;;5095086;28;20220;-75
2022/10/29 03:33:48;;;;;;;18.33;11.30;;;10.20;99.90;;;;;;5095184;28;20250;-75
2022/10/29 03:36:14;;;;;;;18.37;11.30;;;10.20;99.90;;;;;;5095171;28;20196;-75
2022/10/29 03:38:41;;;;;;;16.90;12.00;;;10.20;99.90;;;;;;5095058;28;20222;-75
2022/10/29 03:41:09;;;;;;;18.67;12.43;;;10.20;99.90;;;;;;5094991;28;20617;-75
2022/10/29 03:43:37;;;;;;;20.83;12.47;;;10.20;99.90;;;;;;5094837;28;20291;-75
2022/10/29 03:46:05;;;;;;;23.87;12.83;;;10.20;99.90;;;;;;5094670;28;20249;-75
2022/10/29 03:48:32;;;;;;;19.40;11.90;;;10.20;99.90;;;;;;5094689;28;20242;-75
2022/10/29 03:51:01;;;;;;;19.00;12.50;;;10.10;99.90;;;;;;5094672;28;20220;-75
2022/10/29 03:53:28;;;;;;;19.00;11.90;;;10.20;99.90;;;;;;5094862;28;20196;-75
2022/10/29 03:55:56;;;;;;;20.00;12.63;;;10.20;99.90;;;;;;5094599;28;20609;-75
2022/10/29 03:58:24;;;;;;;16.73;12.17;;;10.20;99.90;;;;;;5094537;28;20200;-75
2022/10/29 04:00:56;;;;;;;16.57;11.97;;;10.20;99.90;;;;;;5094794;28;20257;-75
2022/10/29 04:03:23;;;;;;;14.20;10.97;;;10.10;99.90;;;;;;5094442;28;20224;-76
2022/10/29 04:05:50;;;;;;;18.93;11.87;;;10.10;99.90;;;;;;5094574;28;20196;-75
2022/10/29 04:08:17;;;;;;;15.00;11.10;;;10.10;99.90;;;;;;5094275;28;20647;-75
2022/10/29 04:10:45;;;;;;;17.33;12.57;;;10.10;99.90;;;;;;5093664;28;20200;-75
2022/10/29 04:13:12;;;;;;;17.93;12.17;;;10.00;99.90;;;;;;5094198;28;20196;-75
2022/10/29 04:15:38;;;;;;;21.70;13.53;;;10.00;99.90;;;;;;5094362;28;20602;-75
2022/10/29 04:18:07;;;;;;;17.00;11.73;;;10.00;99.90;;;;;;5094267;28;20200;-75
2022/10/29 04:20:34;;;;;;;15.67;11.70;;;10.00;99.90;;;;;;5094081;28;20601;-75
2022/10/29 04:23:00;;;;;;;16.30;11.60;;;10.00;99.90;;;;;;5094157;28;20200;-75
2022/10/29 04:25:27;;;;;;;13.77;11.83;;;10.00;99.90;;;;;;5093805;28;20655;-75
2022/10/29 04:27:54;;;;;;;16.63;10.93;;;10.10;99.90;;;;;;5094257;28;20606;-76
2022/10/29 04:30:21;;;;;;;15.37;11.40;;;10.20;99.90;;;;;;5094158;28;20266;-75
2022/10/29 04:32:47;;;;;;;16.07;11.10;;;10.10;99.90;;;;;;5093913;28;20220;-76
2022/10/29 04:35:16;;;;;;;15.43;11.63;;;10.10;99.90;;;;;;5093931;28;20234;-76
2022/10/29 04:37:43;;;;;;;18.07;11.33;;;10.10;99.90;;;;;;5093911;28;20200;-75
2022/10/29 04:40:10;;;;;;;13.50;10.97;;;10.10;99.90;;;;;;5093697;28;20643;-75
2022/10/29 04:42:37;;;;;;;18.03;10.73;;;10.10;99.90;;;;;;5093832;28;20254;-75
2022/10/29 04:45:04;;;;;;;14.53;10.63;;;10.10;99.90;;;;;;5093811;28;20212;-75
2022/10/29 04:47:31;;;;;;;14.83;10.60;;;10.10;99.90;;;;;;5093679;28;20200;-76
2022/10/29 04:49:57;;;;;;;13.20;9.40;;;10.10;99.90;;;;;;5093526;28;20200;-76
2022/10/29 04:52:26;;;;;;;18.20;10.50;;;10.20;99.90;;;;;;5093499;28;20312;-75
2022/10/29 04:54:52;;;;;;;23.23;11.00;;;10.30;99.90;;;;;;5093455;28;20196;-76
2022/10/29 04:57:19;;;;;;;14.03;10.20;;;10.30;99.90;;;;;;5093635;28;20200;-75
2022/10/29 04:59:46;;;;;;;13.90;10.40;;;10.30;99.90;;;;;;5093467;28;20257;-76
2022/10/29 05:02:12;;;;;;;15.70;10.50;;;10.40;99.90;;;;;;5093341;28;20643;-76
2022/10/29 05:04:39;;;;;;;16.00;9.63;;;10.50;99.90;;;;;;5093136;28;20281;-75
2022/10/29 05:07:05;;;;;;;18.13;10.90;;;10.50;99.90;;;;;;5093258;28;20245;-75
2022/10/29 05:09:33;;;;;;;17.23;10.07;;;10.60;99.90;;;;;;5093232;28;20227;-76
2022/10/29 05:12:00;;;;;;;17.07;11.10;;;10.60;99.90;;;;;;5093269;28;20277;-76
2022/10/29 05:14:27;;;;;;;15.10;10.10;;;10.50;99.90;;;;;;5093302;28;20253;-75
2022/10/29 05:16:53;;;;;;;16.77;10.70;;;10.60;99.90;;;;;;5093269;28;20265;-75
2022/10/29 05:19:20;;;;;;;14.67;9.27;;;10.60;99.90;;;;;;5093075;28;20192;-75
2022/10/29 05:21:47;;;;;;;17.60;8.93;;;10.70;99.90;;;;;;5092189;28;20261;-76
2022/10/29 05:24:13;;;;;;;13.63;9.57;;;10.70;99.90;;;;;;5092902;28;20536;-76
2022/10/29 05:26:42;;;;;;;17.73;10.07;;;10.70;99.90;;;;;;5093300;28;20192;-76
2022/10/29 05:29:09;;;;;;;11.53;9.40;;;10.60;99.90;;;;;;5093041;28;20196;-75
2022/10/29 05:31:36;;;;;;;16.10;9.80;;;10.60;99.90;;;;;;5092825;28;20748;-76
2022/10/29 05:34:02;;;;;;;12.03;9.60;;;10.70;99.90;;;;;;5093057;28;20192;-76
2022/10/29 05:36:29;;;;;;;21.87;12.37;;;10.70;99.90;;;;;;5092959;28;20204;-76
2022/10/29 05:38:55;;;;;;;20.60;11.80;;;10.70;99.90;;;;;;5093171;28;20253;-76
2022/10/29 05:41:22;;;;;;;13.83;9.67;;;10.60;99.90;;;;;;5093557;28;20253;-75
2022/10/29 05:43:50;;;;;;;15.83;9.50;;;10.50;99.90;;;;;;5098868;28;20200;-85
2022/10/29 05:46:17;;;;;;;18.93;9.87;;;10.50;99.90;;;;;;5099792;28;20242;-84
2022/10/29 05:48:44;;;;;;;14.30;10.07;;;10.50;99.90;;;;;;5100488;28;20192;-79
2022/10/29 05:51:10;;;;;;;15.70;11.10;;;10.50;99.90;;;;;;5094530;28;20196;-81
2022/10/29 05:53:37;;;;;;;17.93;10.83;;;10.50;99.90;;;;;;5096343;28;20242;-78
2022/10/29 05:56:04;;;;;;;11.77;9.43;;;10.50;99.90;;;;;;5094587;28;20283;-79
2022/10/29 05:58:31;;;;;;;17.47;10.10;;;10.50;99.90;;;;;;5096482;28;20231;-82
2022/10/29 06:00:59;;;;;;;14.23;9.23;;;10.50;99.90;;;;;;5101213;28;20196;-80
2022/10/29 06:03:26;;;;;;;15.60;9.70;;;10.50;99.90;;;;;;5099000;28;20289;-81
2022/10/29 06:05:52;;;;;;;15.93;10.20;;;10.60;99.90;;;;;;5100370;28;20239;-83
2022/10/29 06:08:19;;;;;;;23.00;12.27;;;10.60;99.90;;;;;;5093431;28;20651;-77
2022/10/29 06:10:46;;;;;;;23.60;15.13;;;10.70;99.90;;;;;;5092601;28;20201;-74
2022/10/29 06:13:14;;;;;;;19.80;12.23;;;10.80;99.90;;;;;;5092483;28;20224;-75
2022/10/29 06:15:41;;;;;;;15.47;11.87;;;10.70;99.90;;;;;;5092447;28;20200;-74
2022/10/29 06:18:10;;;;;;;22.77;12.87;;;10.90;99.90;;;;;;5092344;28;20208;-74
2022/10/29 06:20:37;;;;;;;17.23;10.43;;;10.90;99.90;;;;;;5092437;28;20204;-73
2022/10/29 06:23:05;;;;;;;15.33;10.20;;;10.90;99.90;;;;;;5092592;28;20610;-74
2022/10/29 06:25:32;;;;;;;12.10;9.77;;;11.00;99.90;;;;;;5092467;28;20197;-75
2022/10/29 06:28:00;;;;;;;17.47;10.27;;;11.00;99.90;;;;;;5092442;28;20548;-74
2022/10/29 06:30:27;;;;;;;13.23;9.73;;;11.10;99.90;;;;;;5092198;28;20193;-74
2022/10/29 06:32:54;;;;;;;20.63;10.17;;;11.20;99.90;;;;;;5094093;28;20303;-74
2022/10/29 06:35:22;;;;;;;19.63;10.97;;;11.20;99.90;;;;;;5096168;28;20600;-73
2022/10/29 06:37:48;;;;;;;18.73;10.50;;;11.30;99.90;;;;;;5096038;28;20347;-74
2022/10/29 06:40:15;;;;;;;20.43;10.37;;;11.30;99.90;;;;;;5095986;28;20201;-74
2022/10/29 06:42:42;;;;;;;19.20;11.40;;;11.30;99.90;;;;;;5095863;28;20254;-74
2022/10/29 06:45:10;;;;;;;21.17;12.33;;;11.40;99.90;;;;;;5095939;28;20192;-74
2022/10/29 06:47:40;;;;;;;18.03;11.70;;;11.50;99.90;;;;;;5095663;28;20596;-73
2022/10/29 06:50:07;;;;;;;16.70;12.13;;;11.50;99.90;;;;;;5095763;28;20582;-73
2022/10/29 06:52:36;;;;;;;17.00;11.17;;;11.60;99.90;;;;;;5096144;28;20220;-75
2022/10/29 06:55:03;;;;;;;15.73;10.60;;;11.60;99.90;;;;;;5095798;28;20748;-74
2022/10/29 06:57:29;;;;;;;15.40;10.87;;;11.60;99.90;;;;;;5095613;28;20265;-74
2022/10/29 06:59:56;;;;;;;15.83;10.63;;;11.60;99.90;;;;;;5095932;28;20273;-74
2022/10/29 07:02:23;;;;;;;14.80;10.00;;;11.70;99.90;;;;;;5095739;28;20603;-77
2022/10/29 07:04:50;;;;;;;20.60;10.33;;;11.80;99.90;;;;;;5095303;28;20293;-74
2022/10/29 07:07:17;;;;;;;19.27;10.27;;;11.80;99.90;;;;;;5095488;28;20197;-73
2022/10/29 07:09:45;;;;;;;19.13;11.10;;;12.00;99.90;;;;;;5095503;28;20196;-74
2022/10/29 07:12:12;;;;;;;16.93;11.17;;;12.10;99.90;;;;;;5095401;28;20277;-75
2022/10/29 07:14:38;;;;;;;22.43;12.23;;;12.20;99.90;;;;;;5095495;28;20211;-74
2022/10/29 07:17:05;;;;;;;16.80;11.27;;;12.20;99.90;;;;;;5095458;28;20200;-74
2022/10/29 07:19:32;;;;;;;19.07;12.70;;;12.30;99.90;;;;;;5095332;28;20200;-74
2022/10/29 07:21:58;;;;;;;25.43;12.40;;;12.40;99.90;;;;;;5095260;28;20208;-74
2022/10/29 07:24:25;;;;;;;19.60;11.50;;;12.50;99.90;;;;;;5095020;28;20200;-74
2022/10/29 07:26:53;;;;;;;20.37;10.80;;;12.60;99.90;;;;;;5095064;28;20238;-74
2022/10/29 07:29:19;;;;;;;15.30;10.70;;;12.70;99.90;;;;;;5095073;28;20253;-74
2022/10/29 07:31:46;;;;;;;17.23;10.53;;;12.80;99.90;;;;;;5095231;28;20254;-77
2022/10/29 07:34:13;;;;;;;25.33;11.40;;;12.90;99.90;;;;;;5095178;28;20230;-76
2022/10/29 07:36:39;;;;;;;18.23;9.70;;;13.00;99.90;;;;;;5095006;28;20192;-75
2022/10/29 07:39:06;;;;;;;14.30;9.77;;;13.00;99.90;;;;;;5095018;28;20647;-75
2022/10/29 07:41:33;;;;;;;22.10;9.83;;;13.10;99.90;;;;;;5094891;28;20250;-75
2022/10/29 07:44:01;;;;;;;16.80;9.70;;;13.20;99.90;;;;;;5094259;28;20257;-75
2022/10/29 07:46:27;;;;;;;13.20;9.80;;;13.30;99.90;;;;;;5094886;28;20196;-75
2022/10/29 07:48:54;;;;;;;16.93;9.53;;;13.60;99.90;;;;;;5095928;28;20659;-76
2022/10/29 07:51:21;;;;;;;16.77;9.37;;;13.90;99.90;;;;;;5094806;28;20606;-77
2022/10/29 07:53:47;;;;;;;16.87;9.67;;;14.00;99.90;;;;;;5094406;28;20687;-77
2022/10/29 07:56:14;;;;;;;23.80;8.93;;;14.10;99.90;;;;;;5094460;28;20651;-76
2022/10/29 07:58:41;;;;;;;15.87;9.27;;;14.20;99.90;;;;;;5077862;28;20587;-75
2022/10/29 08:01:09;;;;;;;13.10;8.27;;;14.30;99.90;;;;;;5074176;28;20231;-75
2022/10/29 08:03:36;;;;;;;12.47;7.73;;;14.30;99.90;;;;;;5074010;28;20274;-76
2022/10/29 08:06:02;;;;;;;16.07;8.13;;;14.20;99.90;;;;;;5074128;28;20201;-76
2022/10/29 08:08:29;;;;;;;16.77;8.10;;;14.20;99.90;;;;;;5073772;28;20697;-76
2022/10/29 08:11:00;;;;;;;16.50;8.00;;;14.20;99.90;;;;;;5074198;28;20208;-78
2022/10/29 08:13:27;;;;;;;15.03;8.30;;;14.30;99.90;;;;;;5073841;28;20691;-77
2022/10/29 08:15:54;;;;;;;14.97;8.67;;;14.40;99.90;;;;;;5073987;28;20201;-77
2022/10/29 08:18:22;;;;;;;16.60;9.70;;;14.60;99.90;;;;;;5073823;28;20208;-76
2022/10/29 08:20:49;;;;;;;13.63;8.57;;;15.00;99.90;;;;;;5073642;28;20667;-77
2022/10/29 08:23:16;;;;;;;15.05;8.57;;;15.40;99.90;;;;;;5073806;28;20201;-76
2022/10/29 08:25:45;;;;;;;19.13;9.15;;;15.90;99.90;;;;;;5073847;28;20193;-76
2022/10/29 08:28:13;;;;;;;13.50;7.93;;;16.40;99.90;;;;;;5073673;28;20672;-78
2022/10/29 08:30:40;;;;;;;13.25;8.55;;;16.70;99.90;;;;;;5073695;28;20204;-78
2022/10/29 08:33:08;;;;;;;14.35;8.73;;;17.00;99.90;;;;;;5073482;28;20221;-77
2022/10/29 08:35:37;;;;;;;15.48;8.07;;;17.20;99.90;;;;;;5073607;28;20207;-79
2022/10/29 08:38:03;;;;;;;13.50;8.05;;;17.60;99.90;;;;;;5073867;28;20197;-75
2022/10/29 08:40:38;;;;;;;11.95;7.90;;;18.00;99.90;;;;;;5073466;28;20651;-76
2022/10/29 08:43:36;;;;;;;15.77;8.35;;;18.50;99.90;;;;;;5073499;28;20200;-77
2022/10/29 08:46:04;;;;;;;10.75;7.38;;;18.90;99.90;;;;;;5072311;28;20200;-78
2022/10/29 08:48:40;;;;;;;10.52;7.30;;;19.30;99.90;;;;;;5073330;28;20201;-76
2022/10/29 08:51:13;;;;;;;11.25;6.80;;;19.60;99.90;;;;;;5073341;28;20239;-77
2022/10/29 08:53:43;;;;;;;12.25;6.93;;;19.80;99.90;;;;;;5072564;28;20319;-77
2022/10/29 08:56:15;;;;;;;10.90;6.05;;;20.00;99.90;;;;;;5072440;28;20197;-76
2022/10/29 08:58:49;;;;;;;15.10;7.25;;;20.10;99.90;;;;;;5072637;28;20291;-77
2022/10/29 09:01:21;;;;;;;10.65;6.15;;;20.20;99.90;;;;;;5072656;28;20200;-75
2022/10/29 09:03:47;;;;;;;11.57;5.78;;;20.10;99.90;;;;;;5072258;28;20227;-77
2022/10/29 09:06:23;;;;;;;14.38;6.47;;;20.10;99.90;;;;;;5072640;28;20239;-75
2022/10/29 09:09:04;;;;;;;11.38;6.38;;;20.10;99.90;;;;;;5072233;28;20643;-77
2022/10/29 09:11:44;;;;;;;13.70;6.45;;;19.90;99.90;;;;;;5072608;28;20197;-78
2022/10/29 09:14:39;;;;;;;13.57;6.15;;;19.70;99.90;;;;;;5072324;28;20308;-77
2022/10/29 09:17:16;;;;;;;12.70;6.32;;;19.80;99.90;;;;;;5072224;28;20196;-78
2022/10/29 09:20:02;;;;;;;16.80;6.82;;;20.40;99.90;;;;;;5072963;28;20201;-76
2022/10/29 09:22:36;;;;;;;16.35;6.68;;;20.70;99.90;;;;;;5072973;28;20599;-78
2022/10/29 09:25:14;;;;;;;14.18;6.57;;;21.10;99.90;;;;;;5072899;28;20258;-78
2022/10/29 09:27:53;;;;;;;12.65;6.63;;;21.20;99.90;;;;;;5072854;28;20200;-82
2022/10/29 09:30:20;;;;;;;11.98;6.07;;;21.40;99.90;;;;;;5073168;28;20193;-78
2022/10/29 09:32:55;;;;;;;15.07;6.93;;;21.70;99.90;;;;;;5072817;28;20277;-78
2022/10/29 09:35:28;;;;;;;9.70;6.30;;;21.90;99.90;;;;;;5073133;28;20196;-84
2022/10/29 09:37:59;;;;;;;12.68;5.70;;;22.10;99.90;;;;;;5073075;28;20197;-79
2022/10/29 09:40:33;;;;;;;15.63;6.32;;;22.60;99.90;;;;;;5072409;28;20197;-79
2022/10/29 09:43:05;;;;;;;15.48;6.78;;;23.00;99.90;;;;;;5072692;28;20195;-77
2022/10/29 09:45:44;;;;;;;10.32;6.07;;;23.40;99.90;;;;;;5072969;28;20266;-80
2022/10/29 09:48:18;;;;;;;14.23;6.10;;;23.80;99.90;;;;;;5072830;28;20200;-79
2022/10/29 09:50:53;;;;;;;11.95;5.80;;;24.20;99.90;;;;;;5073025;28;20200;-79
2022/10/29 09:53:21;;;;;;;15.38;6.60;;;24.90;99.90;;;;;;5072909;28;20224;-78
2022/10/29 09:55:52;;;;;;;12.50;5.63;;;25.60;99.90;;;;;;5073194;28;20204;-79
2022/10/29 09:58:22;;;;;;;13.15;5.50;;;26.00;99.90;;;;;;5078430;28;20224;-79
2022/10/29 10:00:49;;;;;;;9.73;4.32;;;26.50;99.90;;;;;;5091810;28;20291;-79
2022/10/29 10:03:21;;;;;;;15.70;5.20;;;26.80;99.90;;;;;;5094242;28;20212;-78
2022/10/29 10:05:57;;;;;;;9.07;4.60;;;27.00;99.90;;;;;;5097055;28;20188;-78
2022/10/29 10:08:26;;;;;;;10.35;4.30;;;27.20;99.90;;;;;;5098480;28;20196;-78
2022/10/29 10:10:54;;;;;;;12.43;4.90;;;27.50;99.90;;;;;;5100263;28;20180;-78
2022/10/29 10:13:23;;;;;;;10.70;4.57;;;28.00;99.90;;;;;;5083499;28;20311;-78
2022/10/29 10:15:52;;;;;;;11.88;4.50;;;28.60;99.90;;;;;;5076862;28;20197;-79
2022/10/29 10:18:22;;;;;;;13.95;4.20;;;28.80;99.80;;;;;;5076556;28;20295;-79
2022/10/29 10:21:00;;;;;;;13.15;4.25;;;29.70;98.20;;;;;;5076518;28;20242;-79
2022/10/29 10:23:30;;;;;;;14.38;5.10;;;30.50;97.90;;;;;;5076481;28;20204;-78
2022/10/29 10:25:59;;;;;;;8.40;4.32;;;30.60;95.50;;;;;;5077348;28;20192;-78
2022/10/29 10:28:28;;;;;;;10.70;4.20;;;31.20;94.50;;;;;;5076337;28;20225;-78
2022/10/29 10:31:13;;;;;;;8.80;4.28;;;31.90;93.00;;;;;;5076068;28;20669;-79
2022/10/29 10:33:51;;;;;;;11.90;4.78;;;32.60;91.60;;;;;;5075280;28;20224;-79
2022/10/29 10:36:20;;;;;;;12.82;4.40;;;32.90;89.90;;;;;;5076290;28;20744;-79
2022/10/29 10:38:51;;;;;;;10.77;4.47;;;33.00;86.60;;;;;;5076394;28;20227;-78
2022/10/29 10:41:24;;;;;;;13.38;4.85;;;31.90;86.60;;;;;;5076091;28;20715;-78
2022/10/29 10:43:51;;;;;;;17.23;4.75;;;30.50;86.90;;;;;;5076117;28;20678;-78
2022/10/29 10:46:23;;;;;;;9.35;4.43;;;29.20;88.00;;;;;;5076045;28;20204;-78
2022/10/29 10:49:02;;;;;;;12.15;5.53;;;28.00;90.50;;;;;;5075890;28;20192;-79
2022/10/29 10:51:31;;;;;;;9.85;5.03;;;27.20;92.10;;;;;;5075755;28;20578;-78
2022/10/29 10:54:03;;;;;;;16.13;4.75;;;26.90;92.80;;;;;;5075886;28;20228;-79
2022/10/29 10:56:29;;;;;;;10.85;4.53;;;28.90;92.20;;;;;;5076001;28;20317;-80
2022/10/29 10:59:05;;;;;;;9.50;4.25;;;30.70;91.00;;;;;;5075673;28;20597;-78
2022/10/29 11:01:37;;;;;;;9.38;3.85;;;32.20;87.40;;;;;;5075919;28;20601;-81
2022/10/29 11:04:14;;;;;;;10.55;5.38;;;33.60;84.80;;;;;;5075486;28;20228;-83
2022/10/29 11:06:43;;;;;;;10.38;4.95;;;34.70;81.00;;;;;;5075579;28;20605;-81
2022/10/29 11:09:20;;;;;;;10.65;4.05;;;35.00;78.30;;;;;;5075508;28;20243;-80
2022/10/29 11:11:51;;;;;;;13.10;5.07;;;35.10;74.50;;;;;;5075257;28;20196;-80
2022/10/29 11:14:23;;;;;;;10.98;3.95;;;35.80;71.90;;;;;;5075286;28;20235;-79
2022/10/29 11:16:53;;;;;;;12.02;4.90;;;36.70;71.50;;;;;;5075375;28;20200;-79
2022/10/29 11:19:25;;;;;;;13.02;4.68;;;36.40;67.40;;;;;;5074024;28;20200;-79
2022/10/29 11:22:02;;;;;;;8.77;4.28;;;36.80;64.20;;;;;;5075263;28;20245;-78
2022/10/29 11:24:39;;;;;;;10.98;4.68;;;36.90;63.00;;;;;;5075098;28;20204;-77
2022/10/29 11:27:18;;;;;;;10.35;4.00;;;38.60;60.40;;;;;;5075042;28;20200;-77
2022/10/29 11:29:51;;;;;;;10.05;4.35;;;38.20;56.50;;;;;;5074531;28;20204;-79
2022/10/29 11:32:23;;;;;;;9.90;4.43;;;38.30;55.60;;;;;;5075010;28;20208;-80
2022/10/29 11:34:57;;;;;;;13.10;4.22;;;37.70;53.70;;;;;;5075461;28;20216;-78
2022/10/29 11:37:32;;;;;;;11.43;4.80;;;36.80;52.90;;;;;;5074707;28;20613;-79
2022/10/29 11:40:03;;;;;;;15.13;4.57;;;36.90;53.80;;;;;;5074927;28;20192;-78
2022/10/29 11:42:30;;;;;;;9.77;4.40;;;37.70;50.90;;;;;;5074656;28;20196;-78
2022/10/29 11:44:58;;;;;;;12.40;4.30;;;38.40;51.40;;;;;;5074595;28;20204;-78
2022/10/29 11:47:55;;;;;;;11.93;4.40;;;38.20;51.60;;;;;;5074526;28;20204;-78
2022/10/29 11:50:31;;;;;;;9.10;4.25;;;36.00;51.80;;;;;;5074819;28;20246;-78
2022/10/29 11:53:10;;;;;;;12.40;4.55;;;34.00;50.70;;;;;;5074565;28;20273;-79
2022/10/29 11:55:49;;;;;;;13.43;4.60;;;32.30;51.40;;;;;;5074484;28;20250;-79
2022/10/29 11:58:21;;;;;;;10.50;4.65;;;32.30;52.50;;;;;;5074538;28;20242;-78
2022/10/29 12:00:57;;;;;;;10.90;4.68;;;34.20;52.50;;;;;;5074531;28;20249;-78
2022/10/29 12:03:44;;;;;;;9.65;4.72;;;33.60;50.50;;;;;;5074287;28;20208;-77
2022/10/29 12:06:17;;;;;;;11.68;4.60;;;33.50;51.60;;;;;;5074554;28;20606;-76
2022/10/29 12:08:57;;;;;;;12.05;4.82;;;35.30;51.90;;;;;;5074362;28;20579;-76
2022/10/29 12:11:33;;;;;;;9.88;4.82;;;35.80;51.70;;;;;;5074332;28;20192;-79
2022/10/29 12:14:15;;;;;;;10.95;4.15;;;34.20;50.30;;;;;;5074011;28;20871;-79
2022/10/29 12:16:52;;;;;;;13.40;4.90;;;32.80;44.40;;;;;;5074199;28;20230;-78
2022/10/29 12:19:30;;;;;;;14.00;4.45;;;33.50;49.20;;;;;;5073970;28;20654;-78
2022/10/29 12:22:07;;;;;;;10.45;4.70;;;35.20;49.40;;;;;;5073940;28;20192;-77
2022/10/29 12:24:50;;;;;;;11.30;4.45;;;37.10;48.50;;;;;;5074139;28;20196;-77
2022/10/29 12:27:26;;;;;;;10.68;4.22;;;37.30;46.60;;;;;;5073920;28;20250;-77
2022/10/29 12:29:58;;;;;;;8.20;4.00;;;36.90;44.70;;;;;;5073636;28;20608;-79
2022/10/29 12:32:31;;;;;;;10.43;3.97;;;37.40;46.40;;;;;;5073933;28;20197;-77
2022/10/29 12:35:01;;;;;;;11.02;4.72;;;36.80;46.40;;;;;;5074562;28;20230;-80
2022/10/29 12:37:37;;;;;;;9.02;4.18;;;37.00;47.80;;;;;;5074625;28;20291;-79
2022/10/29 12:40:12;;;;;;;11.13;4.18;;;38.10;46.50;;;;;;5074081;28;20192;-79
2022/10/29 12:42:41;;;;;;;8.85;4.40;;;37.30;47.40;;;;;;5082827;28;20246;-79
2022/10/29 12:45:23;;;;;;;15.38;4.47;;;38.70;46.90;;;;;;5080621;28;20245;-79
2022/10/29 12:47:58;;;;;;;9.23;4.60;;;38.00;46.40;;;;;;5075541;28;20207;-79